createdAt,value
2017-09-02T00:01:57.960Z,5.07
2017-09-02T00:04:24.168Z,6.40
2017-09-02T00:06:50.670Z,5.33
2017-09-02T00:09:16.931Z,5.70
2017-09-02T00:14:16.163Z,5.83
2017-09-02T00:16:42.393Z,4.53
2017-09-02T00:19:08.615Z,5.00
2017-09-02T00:21:35.113Z,5.87
2017-09-02T00:24:01.338Z,5.43
2017-09-02T00:26:27.587Z,5.60
2017-09-02T00:28:54.018Z,4.83
2017-09-02T00:31:20.250Z,5.80
2017-09-02T00:33:46.487Z,6.50
2017-09-02T00:36:12.748Z,5.37
2017-09-02T00:38:38.975Z,5.40
2017-09-02T00:41:05.252Z,5.87
2017-09-02T00:43:31.533Z,5.57
2017-09-02T00:45:57.785Z,6.13
2017-09-02T00:48:24.033Z,8.03
2017-09-02T00:50:50.332Z,7.80
2017-09-02T00:53:16.564Z,8.60
2017-09-02T00:55:42.809Z,8.23
2017-09-02T00:58:09.092Z,10.80
2017-09-02T01:00:35.340Z,16.97
2017-09-02T01:03:01.558Z,38.27
2017-09-02T01:05:27.865Z,100.67
2017-09-02T01:07:54.117Z,107.30
2017-09-02T01:10:20.365Z,13.53
2017-09-02T01:12:46.910Z,16.70
2017-09-02T01:15:13.219Z,60.17
2017-09-02T01:17:39.449Z,21.23
2017-09-02T01:20:05.681Z,36.33
2017-09-02T01:22:31.904Z,16.10
2017-09-02T01:24:58.157Z,30.23
2017-09-02T01:27:24.366Z,15.70
2017-09-02T01:29:50.658Z,22.33
2017-09-02T01:32:16.910Z,37.10
2017-09-02T01:34:43.148Z,71.67
2017-09-02T01:37:09.394Z,74.80
2017-09-02T01:39:35.646Z,85.33
2017-09-02T01:42:01.970Z,46.30
2017-09-02T01:44:28.214Z,54.70
2017-09-02T01:46:54.486Z,23.10
2017-09-02T01:49:20.698Z,11.00
2017-09-02T01:51:46.921Z,15.80
2017-09-02T01:54:13.181Z,14.93
2017-09-02T01:56:39.418Z,12.77
2017-09-02T01:59:05.636Z,23.00
2017-09-02T02:01:32.693Z,18.70
2017-09-02T02:03:58.909Z,19.97
2017-09-02T02:06:25.136Z,9.73
2017-09-02T02:08:51.598Z,8.50
2017-09-02T02:11:17.821Z,10.33
2017-09-02T02:13:44.055Z,10.50
2017-09-02T02:16:10.289Z,8.60
2017-09-02T02:18:36.533Z,9.30
2017-09-02T02:21:02.804Z,9.43
2017-09-02T02:23:29.049Z,10.33
2017-09-02T02:25:55.270Z,36.27
2017-09-02T02:28:21.502Z,19.23
2017-09-02T02:30:47.730Z,64.47
2017-09-02T02:33:14.101Z,79.93
2017-09-02T02:35:40.346Z,44.07
2017-09-02T02:38:06.567Z,17.10
2017-09-02T02:40:32.830Z,18.23
2017-09-02T02:42:59.057Z,25.30
2017-09-02T02:45:25.272Z,36.30
2017-09-02T02:47:51.520Z,22.07
2017-09-02T02:50:17.760Z,13.23
2017-09-02T02:52:44.046Z,24.90
2017-09-02T02:55:10.590Z,10.50
2017-09-02T02:57:36.822Z,6.07
2017-09-02T03:00:03.073Z,13.37
2017-09-02T03:02:29.353Z,9.33
2017-09-02T03:04:55.594Z,10.60
2017-09-02T03:07:21.822Z,10.63
2017-09-02T03:09:48.422Z,7.23
2017-09-02T03:12:14.649Z,8.50
2017-09-02T03:14:40.906Z,7.53
2017-09-02T03:17:07.341Z,9.17
2017-09-02T03:19:33.682Z,9.03
2017-09-02T03:21:59.973Z,8.47
2017-09-02T03:24:26.250Z,7.90
2017-09-02T03:26:52.470Z,8.10
2017-09-02T03:29:18.714Z,11.77
2017-09-02T03:31:44.968Z,31.80
2017-09-02T03:34:11.210Z,33.93
2017-09-02T03:36:37.440Z,33.67
2017-09-02T03:39:03.778Z,46.13
2017-09-02T03:41:30.005Z,37.47
2017-09-02T03:43:56.247Z,40.87
2017-09-02T03:46:22.477Z,9.73
2017-09-02T03:48:48.712Z,11.03
2017-09-02T03:51:15.325Z,11.83
2017-09-02T03:53:41.676Z,13.57
2017-09-02T03:58:40.825Z,9.20
2017-09-02T04:01:07.068Z,9.30
2017-09-02T04:03:33.311Z,9.40
2017-09-02T04:05:59.852Z,9.50
2017-09-02T04:08:26.087Z,9.60
2017-09-02T04:10:52.309Z,8.90
2017-09-02T04:13:18.642Z,7.40
2017-09-02T04:15:44.897Z,7.07
2017-09-02T04:18:11.152Z,6.97
2017-09-02T04:20:37.427Z,8.50
2017-09-02T04:23:03.657Z,7.50
2017-09-02T04:25:29.907Z,8.90
2017-09-02T04:27:56.177Z,8.53
2017-09-02T04:30:22.400Z,7.10
2017-09-02T04:32:48.628Z,7.83
2017-09-02T04:35:14.905Z,7.23
2017-09-02T04:37:41.130Z,7.30
2017-09-02T04:40:07.382Z,8.17
2017-09-02T04:42:33.676Z,8.67
2017-09-02T04:44:59.972Z,6.83
2017-09-02T04:47:26.263Z,8.37
2017-09-02T04:49:53.747Z,7.17
2017-09-02T04:52:20.006Z,9.37
2017-09-02T04:54:46.237Z,8.07
2017-09-02T04:57:12.468Z,10.63
2017-09-02T04:59:38.766Z,17.67
2017-09-02T05:02:05.006Z,14.30
2017-09-02T05:07:04.124Z,52.53
2017-09-02T05:09:30.369Z,24.43
2017-09-02T05:11:56.940Z,10.00
2017-09-02T05:14:23.727Z,16.10
2017-09-02T05:16:50.019Z,12.27
2017-09-02T05:19:16.246Z,12.87
2017-09-02T05:21:42.505Z,16.17
2017-09-02T05:24:08.734Z,17.90
2017-09-02T05:26:34.986Z,27.50
2017-09-02T05:29:01.558Z,9.53
2017-09-02T05:31:27.789Z,11.50
2017-09-02T05:33:54.025Z,8.83
2017-09-02T05:36:20.301Z,9.70
2017-09-02T05:38:46.526Z,11.03
2017-09-02T05:41:12.757Z,11.00
2017-09-02T05:43:39.318Z,9.37
2017-09-02T05:46:05.544Z,8.90
2017-09-02T05:48:31.798Z,11.10
2017-09-02T05:50:58.417Z,9.53
2017-09-02T05:53:24.674Z,8.97
2017-09-02T05:55:50.940Z,10.40
2017-09-02T05:58:17.168Z,11.00
2017-09-02T06:00:43.409Z,8.40
2017-09-02T06:03:09.963Z,8.00
2017-09-02T06:05:36.222Z,9.50
2017-09-02T06:08:02.457Z,13.13
2017-09-02T06:10:28.723Z,13.00
2017-09-02T06:12:54.978Z,56.37
2017-09-02T06:15:21.240Z,18.23
2017-09-02T06:17:47.651Z,20.17
2017-09-02T06:20:13.895Z,29.20
2017-09-02T06:22:40.400Z,21.13
2017-09-02T06:25:06.929Z,29.50
2017-09-02T06:27:33.271Z,32.70
2017-09-02T06:29:59.562Z,38.60
2017-09-02T06:32:25.909Z,20.13
2017-09-02T06:34:52.251Z,18.20
2017-09-02T06:37:18.477Z,15.50
2017-09-02T06:39:44.880Z,9.60
2017-09-02T06:42:11.129Z,9.80
2017-09-02T06:44:37.349Z,11.10
2017-09-02T06:47:03.823Z,12.07
2017-09-02T06:49:30.054Z,9.83
2017-09-02T06:51:56.298Z,8.23
2017-09-02T06:54:22.564Z,7.37
2017-09-02T06:56:48.791Z,10.30
2017-09-02T06:59:15.002Z,10.27
2017-09-02T07:01:41.582Z,8.20
2017-09-02T07:04:07.817Z,8.60
2017-09-02T07:06:34.043Z,7.83
2017-09-02T07:09:00.310Z,10.30
2017-09-02T07:11:26.553Z,8.40
2017-09-02T07:13:52.838Z,16.03
2017-09-02T07:16:19.085Z,8.03
2017-09-02T07:18:45.302Z,7.10
2017-09-02T07:21:11.773Z,5.40
2017-09-02T07:23:38.410Z,5.40
2017-09-02T07:26:04.666Z,7.40
2017-09-02T07:28:30.939Z,7.27
2017-09-02T07:30:57.168Z,6.10
2017-09-02T07:33:23.405Z,5.70
2017-09-02T07:35:49.660Z,4.80
2017-09-02T07:38:16.018Z,5.77
2017-09-02T07:40:42.281Z,30.03
2017-09-02T07:43:08.569Z,4.87
2017-09-02T07:45:34.804Z,12.60
2017-09-02T07:48:01.049Z,4.83
2017-09-02T07:50:27.346Z,3.23
2017-09-02T07:52:53.601Z,6.30
2017-09-02T07:55:19.831Z,4.80
2017-09-02T07:57:46.093Z,3.40
2017-09-02T08:00:12.337Z,3.43
2017-09-02T08:02:38.585Z,3.33
2017-09-02T08:05:04.874Z,4.30
2017-09-02T08:07:31.873Z,4.80
2017-09-02T08:09:58.608Z,3.00
2017-09-02T08:12:25.175Z,3.90
2017-09-02T08:14:51.415Z,3.70
2017-09-02T08:17:17.650Z,2.47
2017-09-02T08:19:44.260Z,2.70
2017-09-02T08:22:10.864Z,3.17
2017-09-02T08:24:37.107Z,3.17
2017-09-02T08:27:03.379Z,3.17
2017-09-02T08:29:29.609Z,2.60
2017-09-02T08:31:56.662Z,2.70
2017-09-02T08:34:22.914Z,2.37
2017-09-02T08:36:49.141Z,3.40
2017-09-02T08:39:15.389Z,2.37
2017-09-02T08:41:41.622Z,2.40
2017-09-02T08:44:07.855Z,1.80
2017-09-02T08:46:34.085Z,2.50
2017-09-02T08:49:00.333Z,2.30
2017-09-02T08:51:26.570Z,2.50
2017-09-02T08:53:52.830Z,2.47
2017-09-02T08:56:19.066Z,2.40
2017-09-02T08:58:45.298Z,2.00
2017-09-02T09:01:11.587Z,1.80
2017-09-02T09:03:37.815Z,2.10
2017-09-02T09:06:04.042Z,2.30
2017-09-02T09:08:31.065Z,2.90
2017-09-02T09:10:57.782Z,2.53
2017-09-02T09:13:24.957Z,2.17
2017-09-02T09:15:52.241Z,2.27
2017-09-02T09:18:18.850Z,3.07
2017-09-02T09:20:45.306Z,2.07
2017-09-02T09:23:13.365Z,1.93
2017-09-02T09:25:39.921Z,2.47
2017-09-02T09:28:06.211Z,2.00
2017-09-02T09:30:33.120Z,1.80
2017-09-02T09:33:00.030Z,2.60
2017-09-02T09:35:26.624Z,2.43
2017-09-02T09:37:53.194Z,3.67
2017-09-02T09:40:19.791Z,2.67
2017-09-02T09:42:46.260Z,4.80
2017-09-02T09:45:13.345Z,2.40
2017-09-02T09:47:40.035Z,2.57
2017-09-02T09:50:07.040Z,4.67
2017-09-02T09:52:34.140Z,3.23
2017-09-02T09:55:01.054Z,21.70
2017-09-02T09:57:28.260Z,79.13
2017-09-02T09:59:55.589Z,29.80
2017-09-02T10:02:22.529Z,12.17
2017-09-02T10:04:49.252Z,7.70
2017-09-02T10:07:16.424Z,3.80
2017-09-02T10:09:43.423Z,5.20
2017-09-02T10:12:10.724Z,1.80
2017-09-02T10:14:37.756Z,2.73
2017-09-02T10:17:05.237Z,1.93
2017-09-02T10:19:32.831Z,2.77
2017-09-02T10:22:00.037Z,2.20
2017-09-02T10:24:27.440Z,2.53
2017-09-02T10:26:55.033Z,3.30
2017-09-02T10:29:21.839Z,2.30
2017-09-02T10:31:48.076Z,2.37
2017-09-02T10:34:14.441Z,1.50
2017-09-02T10:36:41.439Z,2.47
2017-09-02T10:39:07.689Z,2.20
2017-09-02T10:41:34.354Z,2.50
2017-09-02T10:44:00.582Z,1.93
2017-09-02T10:46:27.847Z,4.10
2017-09-02T10:48:54.878Z,5.97
2017-09-02T10:51:21.493Z,4.30
2017-09-02T10:53:47.718Z,2.93
2017-09-02T10:56:14.713Z,1.80
2017-09-02T10:58:41.010Z,7.23
2017-09-02T11:01:07.335Z,1.63
2017-09-02T11:03:33.758Z,2.30
2017-09-02T11:05:59.999Z,1.80
2017-09-02T11:08:26.908Z,2.80
2017-09-02T11:10:53.170Z,3.80
2017-09-02T11:13:19.418Z,1.90
2017-09-02T11:15:45.686Z,1.90
2017-09-02T11:18:11.957Z,1.80
2017-09-02T11:20:38.618Z,1.43
2017-09-02T11:23:04.892Z,1.90
2017-09-02T11:25:31.126Z,1.93
2017-09-02T11:27:57.345Z,1.90
2017-09-02T11:30:23.602Z,2.27
2017-09-02T11:32:49.838Z,2.20
2017-09-02T11:35:16.089Z,2.00
2017-09-02T11:37:42.423Z,1.73
2017-09-02T11:40:08.646Z,2.07
2017-09-02T11:42:34.878Z,1.93
2017-09-02T11:45:01.140Z,2.13
2017-09-02T11:47:27.365Z,2.40
2017-09-02T11:49:53.683Z,2.13
2017-09-02T11:52:19.922Z,1.93
2017-09-02T11:54:46.257Z,1.60
2017-09-02T11:57:12.477Z,1.90
2017-09-02T11:59:38.705Z,1.70
2017-09-02T12:02:04.971Z,2.33
2017-09-02T12:04:31.203Z,2.00
2017-09-02T12:06:57.430Z,1.90
2017-09-02T12:09:23.666Z,2.03
2017-09-02T12:11:50.857Z,3.07
2017-09-02T12:14:17.152Z,2.17
2017-09-02T12:16:43.383Z,20.90
2017-09-02T12:19:09.945Z,18.37
2017-09-02T12:21:36.193Z,2.53
2017-09-02T12:24:02.433Z,5.03
2017-09-02T12:26:28.940Z,6.30
2017-09-02T12:28:55.763Z,5.63
2017-09-02T12:31:22.020Z,11.70
2017-09-02T12:33:48.262Z,2.03
2017-09-02T12:36:14.486Z,13.50
2017-09-02T12:38:40.718Z,3.67
2017-09-02T12:41:06.954Z,4.00
2017-09-02T12:43:33.183Z,4.60
2017-09-02T12:45:59.454Z,2.70
2017-09-02T12:48:25.694Z,3.77
2017-09-02T12:50:51.934Z,5.20
2017-09-02T12:53:18.205Z,3.50
2017-09-02T12:55:44.435Z,1.90
2017-09-02T12:58:10.651Z,1.60
2017-09-02T13:00:36.913Z,2.00
2017-09-02T13:03:03.152Z,2.27
2017-09-02T13:05:29.402Z,3.50
2017-09-02T13:07:55.853Z,1.80
2017-09-02T13:10:22.102Z,2.00
2017-09-02T13:12:48.706Z,2.10
2017-09-02T13:15:15.219Z,2.50
2017-09-02T13:17:41.448Z,2.17
2017-09-02T13:20:07.693Z,2.50
2017-09-02T13:22:33.949Z,1.80
2017-09-02T13:25:00.166Z,1.67
2017-09-02T13:27:26.376Z,2.50
2017-09-02T13:29:52.597Z,2.13
2017-09-02T13:32:19.205Z,1.90
2017-09-02T13:34:45.452Z,1.50
2017-09-02T13:37:11.674Z,2.23
2017-09-02T13:39:37.906Z,39.80
2017-09-02T13:42:04.170Z,1.80
2017-09-02T13:44:30.382Z,1.77
2017-09-02T13:46:56.610Z,19.10
2017-09-02T13:49:22.880Z,1.77
2017-09-02T13:51:49.098Z,10.23
2017-09-02T13:54:15.313Z,1.73
2017-09-02T13:56:41.584Z,5.60
2017-09-02T13:59:07.822Z,2.77
2017-09-02T14:01:34.034Z,2.80
2017-09-02T14:04:00.282Z,5.47
2017-09-02T14:06:26.517Z,10.30
2017-09-02T14:08:52.763Z,4.00
2017-09-02T14:11:19.083Z,1.83
2017-09-02T14:13:45.337Z,4.13
2017-09-02T14:16:11.579Z,5.53
2017-09-02T14:18:37.833Z,2.93
2017-09-02T14:21:04.060Z,1.80
2017-09-02T14:23:30.285Z,4.20
2017-09-02T14:25:56.546Z,2.07
2017-09-02T14:28:22.772Z,1.70
2017-09-02T14:30:49.000Z,2.10
2017-09-02T14:33:15.262Z,2.40
2017-09-02T14:35:41.485Z,2.10
2017-09-02T14:38:07.720Z,2.57
2017-09-02T14:40:34.045Z,2.37
2017-09-02T14:43:00.260Z,1.80
2017-09-02T14:45:26.491Z,1.77
2017-09-02T14:47:52.834Z,2.00
2017-09-02T14:50:19.057Z,1.60
2017-09-02T14:52:45.290Z,1.40
2017-09-02T14:55:11.557Z,1.93
2017-09-02T14:57:37.808Z,2.20
2017-09-02T15:00:04.064Z,3.00
2017-09-02T15:02:30.293Z,4.23
2017-09-02T15:04:56.526Z,2.80
2017-09-02T15:07:22.774Z,8.97
2017-09-02T15:09:49.001Z,2.93
2017-09-02T15:12:15.222Z,2.77
2017-09-02T15:14:41.454Z,15.60
2017-09-02T15:17:08.267Z,3.50
2017-09-02T15:19:34.481Z,13.03
2017-09-02T15:22:00.717Z,4.23
2017-09-02T15:24:27.021Z,2.97
2017-09-02T15:26:53.329Z,2.43
2017-09-02T15:29:19.559Z,2.20
2017-09-02T15:31:45.776Z,1.90
2017-09-02T15:34:12.001Z,2.87
2017-09-02T15:36:38.299Z,2.83
2017-09-02T15:39:04.561Z,2.20
2017-09-02T15:41:30.785Z,1.80
2017-09-02T15:43:57.049Z,1.90
2017-09-02T15:46:23.285Z,3.40
2017-09-02T15:48:49.499Z,2.67
2017-09-02T15:51:15.790Z,13.93
2017-09-02T15:53:42.015Z,14.50
2017-09-02T15:56:08.254Z,6.77
2017-09-02T15:58:34.517Z,4.37
2017-09-02T16:01:00.754Z,3.27
2017-09-02T16:03:26.974Z,2.60
2017-09-02T16:05:53.234Z,5.23
2017-09-02T16:08:19.458Z,3.80
2017-09-02T16:10:45.713Z,4.10
2017-09-02T16:13:11.965Z,5.20
2017-09-02T16:15:38.195Z,3.20
2017-09-02T16:18:04.432Z,2.00
2017-09-02T16:20:30.653Z,1.60
2017-09-02T16:22:56.875Z,1.50
2017-09-02T16:25:23.109Z,1.30
2017-09-02T16:27:49.464Z,1.93
2017-09-02T16:30:15.684Z,4.20
2017-09-02T16:32:41.910Z,2.30
2017-09-02T16:35:08.160Z,45.60
2017-09-02T16:37:34.365Z,17.07
2017-09-02T16:40:00.822Z,4.63
2017-09-02T16:42:27.065Z,16.90
2017-09-02T16:44:53.299Z,14.53
2017-09-02T16:47:20.129Z,7.10
2017-09-02T16:49:46.451Z,9.00
2017-09-02T16:52:12.702Z,10.87
2017-09-02T16:54:39.093Z,3.67
2017-09-02T16:57:05.785Z,3.53
2017-09-02T16:59:32.051Z,3.33
2017-09-02T17:01:58.570Z,2.73
2017-09-02T17:04:24.806Z,2.33
2017-09-02T17:06:51.052Z,3.40
2017-09-02T17:09:17.322Z,2.77
2017-09-02T17:11:43.566Z,1.77
2017-09-02T17:14:09.825Z,2.67
2017-09-02T17:16:36.175Z,2.27
2017-09-02T17:19:02.409Z,1.97
2017-09-02T17:21:28.669Z,2.47
2017-09-02T17:23:54.964Z,2.47
2017-09-02T17:26:21.211Z,2.00
2017-09-02T17:28:47.464Z,3.03
2017-09-02T17:31:13.730Z,16.33
2017-09-02T17:33:39.960Z,101.97
2017-09-02T17:36:06.215Z,59.17
2017-09-02T17:38:32.900Z,24.23
2017-09-02T17:40:59.520Z,9.20
2017-09-02T17:43:25.771Z,18.50
2017-09-02T17:45:52.032Z,6.27
2017-09-02T17:48:18.291Z,11.83
2017-09-02T17:50:44.509Z,5.73
2017-09-02T17:53:11.113Z,3.27
2017-09-02T17:55:37.339Z,4.60
2017-09-02T17:58:04.433Z,2.30
2017-09-02T18:00:30.668Z,2.70
2017-09-02T18:02:56.895Z,3.13
2017-09-02T18:05:23.448Z,3.13
2017-09-02T18:07:49.801Z,3.47
2017-09-02T18:10:16.039Z,3.50
2017-09-02T18:12:42.291Z,3.97
2017-09-02T18:15:08.504Z,2.40
2017-09-02T18:17:34.734Z,3.70
2017-09-02T18:20:00.981Z,2.63
2017-09-02T18:22:27.217Z,4.40
2017-09-02T18:24:53.576Z,4.07
2017-09-02T18:27:19.948Z,4.60
2017-09-02T18:29:46.183Z,23.67
2017-09-02T18:32:12.413Z,64.57
2017-09-02T18:34:38.694Z,70.67
2017-09-02T18:37:04.921Z,14.10
2017-09-02T18:39:31.145Z,73.97
2017-09-02T18:41:57.501Z,64.97
2017-09-02T18:44:23.750Z,53.93
2017-09-02T18:46:49.987Z,27.53
2017-09-02T18:49:16.255Z,8.70
2017-09-02T18:51:42.510Z,3.43
2017-09-02T18:54:08.765Z,6.73
2017-09-02T18:56:35.035Z,4.03
2017-09-02T18:59:01.269Z,7.50
2017-09-02T19:01:27.495Z,4.50
2017-09-02T19:03:53.749Z,4.00
2017-09-02T19:06:19.977Z,4.30
2017-09-02T19:08:46.221Z,4.63
2017-09-02T19:11:12.509Z,4.70
2017-09-02T19:13:38.734Z,6.70
2017-09-02T19:16:04.977Z,7.20
2017-09-02T19:18:31.237Z,5.40
2017-09-02T19:20:57.478Z,7.43
2017-09-02T19:23:23.725Z,16.87
2017-09-02T19:25:50.258Z,6.30
2017-09-02T19:28:16.486Z,5.13
2017-09-02T19:30:42.708Z,5.40
2017-09-02T19:33:09.049Z,12.30
2017-09-02T19:35:35.316Z,19.87
2017-09-02T19:38:01.534Z,6.70
2017-09-02T19:40:27.782Z,6.00
2017-09-02T19:42:54.189Z,7.00
2017-09-02T19:45:20.422Z,10.83
2017-09-02T19:47:46.665Z,7.13
2017-09-02T19:50:12.902Z,10.80
2017-09-02T19:52:39.144Z,8.17
2017-09-02T19:55:05.358Z,14.50
2017-09-02T19:57:31.622Z,7.10
2017-09-02T19:59:57.846Z,12.67
2017-09-02T20:02:24.097Z,6.53
2017-09-02T20:04:50.524Z,7.73
2017-09-02T20:07:16.740Z,28.03
2017-09-02T20:09:42.985Z,20.30
2017-09-02T20:12:09.296Z,18.80
2017-09-02T20:14:35.538Z,14.27
2017-09-02T20:17:01.774Z,20.37
2017-09-02T20:19:28.102Z,6.50
2017-09-02T20:21:54.356Z,16.23
2017-09-02T20:24:20.573Z,21.33
2017-09-02T20:26:46.837Z,15.00
2017-09-02T20:29:13.218Z,19.30
2017-09-02T20:31:39.532Z,33.90
2017-09-02T20:34:05.882Z,74.83
2017-09-02T20:36:32.110Z,25.37
2017-09-02T20:38:58.330Z,19.93
2017-09-02T20:41:24.579Z,30.80
2017-09-02T20:43:50.820Z,17.87
2017-09-02T20:46:17.040Z,39.93
2017-09-02T20:48:43.446Z,15.27
2017-09-02T20:51:10.143Z,22.07
2017-09-02T20:53:36.387Z,13.20
2017-09-02T20:56:02.917Z,10.10
2017-09-02T20:58:29.146Z,11.90
2017-09-02T21:00:55.353Z,10.57
2017-09-02T21:03:22.376Z,26.43
2017-09-02T21:05:48.862Z,20.70
2017-09-02T21:08:16.171Z,23.53
2017-09-02T21:10:42.501Z,27.00
2017-09-02T21:13:08.767Z,17.07
2017-09-02T21:15:35.031Z,8.90
2017-09-02T21:18:01.588Z,11.67
2017-09-02T21:20:27.839Z,11.03
2017-09-02T21:22:54.067Z,10.53
2017-09-02T21:25:20.336Z,8.70
2017-09-02T21:27:46.566Z,8.33
2017-09-02T21:30:12.788Z,9.80
2017-09-02T21:32:39.025Z,9.90
2017-09-02T21:35:05.467Z,14.80
2017-09-02T21:37:31.705Z,10.63
2017-09-02T21:39:57.939Z,14.50
2017-09-02T21:42:24.338Z,10.30
2017-09-02T21:44:50.564Z,9.60
2017-09-02T21:47:16.777Z,13.70
2017-09-02T21:49:43.247Z,9.47
2017-09-02T21:52:09.469Z,10.50
2017-09-02T21:54:35.718Z,10.60
2017-09-02T21:57:01.985Z,14.20
2017-09-02T21:59:28.290Z,14.73
2017-09-02T22:01:54.517Z,10.53
2017-09-02T22:04:21.614Z,12.47
2017-09-02T22:06:48.209Z,11.07
2017-09-02T22:09:14.419Z,11.40
2017-09-02T22:11:41.761Z,12.50
2017-09-02T22:14:08.450Z,11.33
2017-09-02T22:16:34.714Z,12.17
2017-09-02T22:19:00.951Z,11.83
2017-09-02T22:21:27.201Z,10.50
2017-09-02T22:23:53.425Z,9.00
2017-09-02T22:26:19.677Z,10.20
2017-09-02T22:28:45.898Z,9.17
2017-09-02T22:31:12.118Z,10.10
2017-09-02T22:33:38.572Z,8.77
2017-09-02T22:36:04.880Z,8.90
2017-09-02T22:38:31.099Z,8.87
2017-09-02T22:40:57.470Z,8.73
2017-09-02T22:43:23.815Z,8.40
2017-09-02T22:45:50.038Z,7.70
2017-09-02T22:48:16.707Z,9.33
2017-09-02T22:50:43.532Z,9.20
2017-09-02T22:53:10.316Z,7.63
2017-09-02T22:55:37.203Z,7.30
2017-09-02T22:58:03.506Z,6.53
2017-09-02T23:00:29.760Z,8.20
2017-09-02T23:02:57.151Z,8.07
2017-09-02T23:05:23.470Z,8.40
2017-09-02T23:07:49.700Z,9.30
2017-09-02T23:10:16.953Z,9.77
2017-09-02T23:12:44.068Z,8.53
2017-09-02T23:15:10.358Z,8.30
2017-09-02T23:17:37.619Z,8.57
2017-09-02T23:20:04.375Z,9.87
2017-09-02T23:22:30.991Z,7.20
2017-09-02T23:24:57.313Z,8.13
2017-09-02T23:27:23.617Z,7.90
2017-09-02T23:29:50.647Z,11.40
2017-09-02T23:32:17.501Z,10.50
2017-09-02T23:34:44.252Z,16.67
2017-09-02T23:37:11.595Z,16.83
2017-09-02T23:39:38.665Z,14.70
2017-09-02T23:42:05.218Z,11.70
2017-09-02T23:44:31.985Z,13.17
2017-09-02T23:46:58.467Z,13.10
2017-09-02T23:49:24.690Z,14.30
2017-09-02T23:51:50.917Z,11.97
2017-09-02T23:54:17.206Z,11.70
2017-09-02T23:56:43.449Z,10.10
2017-09-02T23:59:11.420Z,10.87
